Lucia, California
Current Conditions -  °F | °C
As of 11:54 AM on Sunday 23 Nov 2014 (Local Time) from KMRY Reporting Station
Clear Clear  
Wind Chill: 63°   Ceiling: Unl
Heat Index: 63°   Visibility: 10mi
Dew Point: 45°   Wind: 8mph
Humidity: 52%   Direction: 80°E
Pressure: 30.29"   Gusts: NA
Location:  36.2518°N, 121.704°W
Report Text: KMRY 231954Z 08007KT 10SM CLR 17/07 A3029 RMK AO2 SLP268 T01720072
Loading
Personal Weather Stations






























Interactive Weather Map New forecast layout! Learn more

10-Day Weather Forecast

Advertisements
Track Severe Weather on mobile